Time;durP1;ratioP1;P1;durP2;ratioP2;P2;SDS_P1;SDS_P2;PMS_P1;PMS_P2;Temp;Humidity;BMP_temperature;BMP_pressure;BME280_temperature;BME280_humidity;BME280_pressure;Samples;Min_cycle;Max_cycle;Signal;HPM_P1;HPM_P2
2024/03/07 02:22:47;;;;;;;1999.90;999.90;;;;;;;;;;5121919;23;20234;-67
2024/03/07 02:25:37;;;;;;;1999.90;999.90;;;;;;;;;;5079157;28;20205;-66
2024/03/07 02:28:22;;;;;;;1999.90;999.90;;;;;;;;;;5063420;28;20209;-67
2024/03/07 02:31:07;;;;;;;1999.90;999.90;;;;;;;;;;5060643;28;20708;-67
2024/03/07 02:33:52;;;;;;;1999.90;999.90;;;;;;;;;;5074200;28;20208;-66
2024/03/07 02:36:37;;;;;;;1999.90;999.90;;;;;;;;;;5077746;28;20327;-66
2024/03/07 02:39:24;;;;;;;1999.90;999.90;;;;;;;;;;5077857;28;20208;-67
2024/03/07 02:42:10;;;;;;;1999.90;999.90;;;;;;;;;;5077266;28;20712;-65
2024/03/07 02:44:54;;;;;;;1999.90;999.90;;;;;;;;;;5077688;28;20204;-68
2024/03/07 02:47:41;;;;;;;1999.90;999.90;;;;;;;;;;5077178;28;20204;-67
2024/03/07 02:50:26;;;;;;;1999.90;999.90;;;;;;;;;;5076905;28;20324;-66
2024/03/07 02:53:11;;;;;;;1999.90;999.90;;;;;;;;;;5076723;28;20278;-67
2024/03/07 02:55:57;;;;;;;1999.90;999.90;;;;;;;;;;5077301;28;20228;-65
2024/03/07 02:58:42;;;;;;;1999.90;999.90;;;;;;;;;;5076498;28;20397;-66
2024/03/07 03:01:27;;;;;;;1999.90;999.90;;;;;;;;;;5077004;28;20290;-66
2024/03/07 03:04:12;;;;;;;1999.90;999.90;;;;;;;;;;5077224;28;20208;-66
2024/03/07 03:06:57;;;;;;;1999.90;999.90;;;;;;;;;;5076640;28;20227;-66
2024/03/07 03:09:43;;;;;;;1999.90;999.90;;;;;;;;;;5077422;28;20212;-65
2024/03/07 03:12:29;;;;;;;1999.90;999.90;;;;;;;;;;5076705;28;20232;-66
2024/03/07 03:15:15;;;;;;;1999.90;999.90;;;;;;;;;;5076810;28;20750;-65
2024/03/07 03:18:00;;;;;;;1999.90;999.90;;;;;;;;;;5057058;28;20224;-66
2024/03/07 03:20:47;;;;;;;1999.90;999.90;;;;;;;;;;5056403;28;20343;-65
2024/03/07 03:23:33;;;;;;;1999.90;999.90;;;;;;;;;;5056725;28;20247;-66
2024/03/07 03:26:18;;;;;;;1999.90;999.90;;;;;;;;;;5056346;28;20208;-66
2024/03/07 03:29:06;;;;;;;1999.90;999.90;;;;;;;;;;5056338;28;20213;-66
2024/03/07 03:31:51;;;;;;;1999.90;999.90;;;;;;;;;;5061887;28;20229;-66
2024/03/07 03:34:36;;;;;;;1999.90;999.90;;;;;;;;;;5090599;28;20417;-64
2024/03/07 03:37:21;;;;;;;1999.90;999.90;;;;;;;;;;5094974;28;20209;-66
2024/03/07 03:40:08;;;;;;;1999.90;999.90;;;;;;;;;;5079818;28;20784;-67
2024/03/07 03:42:54;;;;;;;1999.90;999.90;;;;;;;;;;5079389;28;20196;-67
2024/03/07 03:45:40;;;;;;;1999.90;999.90;;;;;;;;;;5080831;28;20200;-66
2024/03/07 03:48:25;;;;;;;1999.90;999.90;;;;;;;;;;5080281;28;20655;-67
2024/03/07 03:51:12;;;;;;;1999.90;999.90;;;;;;;;;;5077525;28;20528;-67
2024/03/07 03:53:58;;;;;;;1999.90;999.90;;;;;;;;;;5080350;28;20216;-66
2024/03/07 03:56:43;;;;;;;1999.90;999.90;;;;;;;;;;5073361;28;20208;-65
2024/03/07 03:59:28;;;;;;;1999.90;999.90;;;;;;;;;;5101235;28;20746;-66
2024/03/07 04:02:14;;;;;;;1999.90;999.90;;;;;;;;;;5087429;28;20711;-65
2024/03/07 04:04:59;;;;;;;1999.90;999.90;;;;;;;;;;5082108;28;20196;-66
2024/03/07 04:07:44;;;;;;;1999.90;999.90;;;;;;;;;;5081210;28;20200;-66
2024/03/07 04:10:29;;;;;;;1999.90;999.90;;;;;;;;;;5076248;28;20259;-66
2024/03/07 04:13:14;;;;;;;1999.90;999.90;;;;;;;;;;5085044;28;20278;-66
2024/03/07 04:16:00;;;;;;;1999.90;999.90;;;;;;;;;;5087085;28;20215;-65
2024/03/07 04:18:46;;;;;;;1999.90;999.90;;;;;;;;;;5082860;28;20209;-65
2024/03/07 04:21:31;;;;;;;1999.90;999.90;;;;;;;;;;5069938;28;20286;-66
2024/03/07 04:24:17;;;;;;;1999.90;999.90;;;;;;;;;;5070644;28;20220;-65
2024/03/07 04:27:03;;;;;;;1999.90;999.90;;;;;;;;;;5059474;28;20940;-66
2024/03/07 04:29:49;;;;;;;1999.90;999.90;;;;;;;;;;5082379;28;20631;-64
2024/03/07 04:32:34;;;;;;;1999.90;999.90;;;;;;;;;;5099291;28;20254;-67
2024/03/07 04:35:21;;;;;;;1999.90;999.90;;;;;;;;;;5099667;28;20234;-66
2024/03/07 04:38:11;;;;;;;1999.90;999.90;;;;;;;;;;5099251;28;20285;-67
2024/03/07 04:40:56;;;;;;;1999.90;999.90;;;;;;;;;;5096932;28;20471;-66
2024/03/07 04:43:42;;;;;;;1999.90;999.90;;;;;;;;;;5079853;28;20207;-66
2024/03/07 04:46:27;;;;;;;1999.90;999.90;;;;;;;;;;5079516;28;20582;-66
2024/03/07 04:49:12;;;;;;;1999.90;999.90;;;;;;;;;;5079455;28;20212;-67
2024/03/07 04:51:58;;;;;;;1999.90;999.90;;;;;;;;;;5072730;28;20344;-69
2024/03/07 04:54:43;;;;;;;1999.90;999.90;;;;;;;;;;5072780;28;20204;-69
2024/03/07 04:57:28;;;;;;;1999.90;999.90;;;;;;;;;;5072623;28;20283;-68
2024/03/07 05:00:14;;;;;;;1999.90;999.90;;;;;;;;;;5071753;28;20276;-69
2024/03/07 05:02:59;;;;;;;1999.90;999.90;;;;;;;;;;5052078;28;20336;-69
2024/03/07 05:05:44;;;;;;;1999.90;999.90;;;;;;;;;;5061681;28;20213;-69
2024/03/07 05:08:31;;;;;;;1999.90;999.90;;;;;;;;;;5064984;28;20197;-69
2024/03/07 05:11:15;;;;;;;1999.90;999.90;;;;;;;;;;5064551;28;20631;-68
2024/03/07 05:14:03;;;;;;;1999.90;999.90;;;;;;;;;;5052456;28;20212;-68
2024/03/07 05:17:01;;;;;;;1999.90;999.90;;;;;;;;;;5054290;28;20432;-69
2024/03/07 05:19:47;;;;;;;1999.90;999.90;;;;;;;;;;5052148;28;20205;-68
2024/03/07 05:22:32;;;;;;;1999.90;999.90;;;;;;;;;;5069571;28;20244;-68
2024/03/07 05:25:19;;;;;;;1999.90;999.90;;;;;;;;;;5070012;28;20201;-68
2024/03/07 05:28:05;;;;;;;1999.90;999.90;;;;;;;;;;5052053;28;20205;-68
2024/03/07 05:30:50;;;;;;;1999.90;999.90;;;;;;;;;;5057180;28;20229;-68
2024/03/07 05:33:35;;;;;;;1999.90;999.90;;;;;;;;;;5057715;28;20476;-67
2024/03/07 05:36:21;;;;;;;1999.90;999.90;;;;;;;;;;5063881;28;20244;-68
2024/03/07 05:39:10;;;;;;;1999.90;999.90;;;;;;;;;;5051984;28;20205;-68
2024/03/07 05:41:57;;;;;;;1999.90;999.90;;;;;;;;;;5064100;28;20259;-68
2024/03/07 05:44:42;;;;;;;1999.90;999.90;;;;;;;;;;5072097;28;20294;-68
2024/03/07 05:47:27;;;;;;;1999.90;999.90;;;;;;;;;;5054275;28;20580;-69
2024/03/07 05:50:13;;;;;;;1999.90;999.90;;;;;;;;;;5063790;28;20711;-67
2024/03/07 05:52:58;;;;;;;1999.90;999.90;;;;;;;;;;5069237;28;20278;-68
2024/03/07 05:55:43;;;;;;;1999.90;999.90;;;;;;;;;;5066693;28;20209;-68
2024/03/07 05:58:29;;;;;;;1999.90;999.90;;;;;;;;;;5051799;28;20209;-68
2024/03/07 06:01:15;;;;;;;1999.90;999.90;;;;;;;;;;5059065;28;20702;-68
2024/03/07 06:04:01;;;;;;;1999.90;999.90;;;;;;;;;;5071830;28;20296;-68
2024/03/07 06:06:46;;;;;;;1999.90;999.90;;;;;;;;;;5063339;28;20279;-68
2024/03/07 06:09:32;;;;;;;1999.90;999.90;;;;;;;;;;5082795;28;20480;-69
2024/03/07 06:12:17;;;;;;;1999.90;999.90;;;;;;;;;;5093991;28;20701;-69
2024/03/07 06:15:04;;;;;;;1999.90;999.90;;;;;;;;;;5075754;28;20208;-69
2024/03/07 06:17:49;;;;;;;1999.90;999.90;;;;;;;;;;5075500;28;20204;-68
2024/03/07 06:20:34;;;;;;;1999.90;999.90;;;;;;;;;;5075463;28;20305;-69
2024/03/07 06:23:20;;;;;;;1999.90;999.90;;;;;;;;;;5075138;28;20345;-68
2024/03/07 06:26:12;;;;;;;1999.90;999.90;;;;;;;;;;5065185;28;20205;-68
2024/03/07 06:28:58;;;;;;;1999.90;999.90;;;;;;;;;;5087801;28;20222;-68
2024/03/07 06:31:46;;;;;;;1999.90;999.90;;;;;;;;;;5089863;28;20228;-68
2024/03/07 06:34:31;;;;;;;1999.90;999.90;;;;;;;;;;5075270;28;20201;-68
2024/03/07 06:37:18;;;;;;;1999.90;999.90;;;;;;;;;;5074726;28;20567;-68
2024/03/07 06:40:09;;;;;;;1999.90;999.90;;;;;;;;;;5075040;28;20254;-68
2024/03/07 06:42:54;;;;;;;1999.90;999.90;;;;;;;;;;5075452;28;20321;-68
2024/03/07 06:45:39;;;;;;;1999.90;999.90;;;;;;;;;;5096167;28;20254;-69
2024/03/07 06:48:25;;;;;;;1999.90;999.90;;;;;;;;;;5096655;28;20204;-68
2024/03/07 06:51:10;;;;;;;1999.90;999.90;;;;;;;;;;5097076;28;20232;-67
2024/03/07 06:53:55;;;;;;;1999.90;999.90;;;;;;;;;;5096832;28;20203;-68
2024/03/07 06:56:43;;;;;;;1999.90;999.90;;;;;;;;;;5096917;28;20216;-68
2024/03/07 06:59:28;;;;;;;1999.90;999.90;;;;;;;;;;5096398;28;20397;-68
2024/03/07 07:02:13;;;;;;;1999.90;999.90;;;;;;;;;;5096294;28;20719;-68
2024/03/07 07:05:00;;;;;;;1999.90;999.90;;;;;;;;;;5096761;28;20203;-69
2024/03/07 07:07:45;;;;;;;1999.90;999.90;;;;;;;;;;5066752;28;20813;-69
2024/03/07 07:10:30;;;;;;;1999.90;999.90;;;;;;;;;;5096680;28;20200;-68
2024/03/07 07:13:15;;;;;;;1999.90;999.90;;;;;;;;;;5082053;28;20232;-68
2024/03/07 07:16:02;;;;;;;1999.90;999.90;;;;;;;;;;5071198;28;20205;-69
2024/03/07 07:18:47;;;;;;;1999.90;999.90;;;;;;;;;;5088179;28;20279;-68
2024/03/07 07:21:33;;;;;;;1999.90;999.90;;;;;;;;;;5094164;28;20247;-68
2024/03/07 07:24:19;;;;;;;1999.90;999.90;;;;;;;;;;5076086;28;20204;-69
2024/03/07 07:27:04;;;;;;;1999.90;999.90;;;;;;;;;;5075765;28;20703;-68
2024/03/07 07:29:49;;;;;;;1999.90;999.90;;;;;;;;;;5074034;28;20239;-68
2024/03/07 07:32:35;;;;;;;1999.90;999.90;;;;;;;;;;5070060;28;20224;-68
2024/03/07 07:35:20;;;;;;;1999.90;999.90;;;;;;;;;;5071792;28;20346;-69
2024/03/07 07:38:10;;;;;;;1999.90;999.90;;;;;;;;;;5073645;28;20224;-69
2024/03/07 07:40:55;;;;;;;1999.90;999.90;;;;;;;;;;5069630;28;20232;-69
2024/03/07 07:43:40;;;;;;;1999.90;999.90;;;;;;;;;;5092615;28;20303;-69
2024/03/07 07:46:25;;;;;;;1999.90;999.90;;;;;;;;;;5086183;28;20303;-69
2024/03/07 07:49:10;;;;;;;1999.90;999.90;;;;;;;;;;5074044;28;20213;-68
2024/03/07 07:51:55;;;;;;;1999.90;999.90;;;;;;;;;;5072381;28;20477;-69
2024/03/07 07:54:43;;;;;;;1999.90;999.90;;;;;;;;;;5073499;28;20199;-68
2024/03/07 07:57:28;;;;;;;1999.90;999.90;;;;;;;;;;5073452;28;20206;-69
2024/03/07 08:00:21;;;;;;;1999.90;999.90;;;;;;;;;;5053341;28;20346;-68
2024/03/07 08:03:07;;;;;;;1999.90;999.90;;;;;;;;;;5053216;28;20579;-68
2024/03/07 08:05:52;;;;;;;1999.90;999.90;;;;;;;;;;5054293;28;20228;-69
2024/03/07 08:08:37;;;;;;;1999.90;999.90;;;;;;;;;;5061606;28;20813;-69
2024/03/07 08:11:23;;;;;;;1999.90;999.90;;;;;;;;;;5093866;28;20340;-69
2024/03/07 08:14:09;;;;;;;1999.90;999.90;;;;;;;;;;5078725;28;20227;-69
2024/03/07 08:16:56;;;;;;;1999.90;999.90;;;;;;;;;;5073223;28;20329;-69
2024/03/07 08:19:41;;;;;;;1999.90;999.90;;;;;;;;;;5073274;28;20207;-68
2024/03/07 08:22:26;;;;;;;1999.90;999.90;;;;;;;;;;5072520;28;20236;-68
2024/03/07 08:25:12;;;;;;;1999.90;999.90;;;;;;;;;;5077441;28;20205;-68
2024/03/07 08:27:59;;;;;;;1999.90;999.90;;;;;;;;;;5093112;28;20271;-68
2024/03/07 08:30:44;;;;;;;1999.90;999.90;;;;;;;;;;5076215;28;20349;-68
2024/03/07 08:33:33;;;;;;;1999.90;999.90;;;;;;;;;;5071668;28;20225;-69
2024/03/07 08:36:18;;;;;;;1999.90;999.90;;;;;;;;;;5072887;28;20210;-68
2024/03/07 08:39:03;;;;;;;1999.90;999.90;;;;;;;;;;5072664;28;20218;-68
2024/03/07 08:41:48;;;;;;;1999.90;999.90;;;;;;;;;;5070932;28;20250;-69
2024/03/07 08:44:34;;;;;;;1999.90;999.90;;;;;;;;;;5066953;28;20585;-69
2024/03/07 08:47:19;;;;;;;1999.90;999.90;;;;;;;;;;5092916;28;20205;-69
2024/03/07 08:50:08;;;;;;;1999.90;999.90;;;;;;;;;;5074821;28;20209;-69
2024/03/07 08:52:53;;;;;;;1999.90;999.90;;;;;;;;;;5072455;28;20719;-68
2024/03/07 08:55:38;;;;;;;1999.90;999.90;;;;;;;;;;5074739;28;20688;-68
2024/03/07 08:58:24;;;;;;;1999.90;999.90;;;;;;;;;;5074196;28;20419;-68
2024/03/07 09:01:10;;;;;;;1999.90;999.90;;;;;;;;;;5082936;28;20270;-68
2024/03/07 09:03:57;;;;;;;1999.90;999.90;;;;;;;;;;5092427;28;20614;-68
2024/03/07 09:06:42;;;;;;;1999.90;999.90;;;;;;;;;;5075202;28;20317;-69
2024/03/07 09:09:27;;;;;;;1999.90;999.90;;;;;;;;;;5072284;28;20583;-70
2024/03/07 09:12:12;;;;;;;1999.90;999.90;;;;;;;;;;5071789;28;20745;-68
2024/03/07 09:14:58;;;;;;;1999.90;999.90;;;;;;;;;;5072230;28;20673;-69
2024/03/07 09:17:45;;;;;;;1999.90;999.90;;;;;;;;;;5072012;28;20684;-70
2024/03/07 09:20:31;;;;;;;1999.90;999.90;;;;;;;;;;5072139;28;20252;-69
2024/03/07 09:23:16;;;;;;;1999.90;999.90;;;;;;;;;;5071950;28;20221;-69
2024/03/07 09:26:02;;;;;;;1999.90;999.90;;;;;;;;;;5072105;28;20250;-69
2024/03/07 09:28:47;;;;;;;1999.90;999.90;;;;;;;;;;5072072;28;20570;-69
2024/03/07 09:31:32;;;;;;;1999.90;999.90;;;;;;;;;;5071299;28;20434;-69
2024/03/07 09:34:20;;;;;;;1999.90;999.90;;;;;;;;;;5071669;28;20356;-68
2024/03/07 09:37:06;;;;;;;1999.90;999.90;;;;;;;;;;5071605;28;20272;-69
2024/03/07 09:39:51;;;;;;;1999.90;999.90;;;;;;;;;;5071935;28;20205;-67
2024/03/07 09:42:39;;;;;;;1999.90;999.90;;;;;;;;;;5071469;28;20221;-68
2024/03/07 09:45:24;;;;;;;1999.90;999.90;;;;;;;;;;5074031;28;20209;-70
2024/03/07 09:48:10;;;;;;;1999.90;999.90;;;;;;;;;;5075559;28;20399;-68
2024/03/07 09:50:58;;;;;;;1999.90;999.90;;;;;;;;;;5075961;28;20277;-69
2024/03/07 09:53:45;;;;;;;1999.90;999.90;;;;;;;;;;5076066;28;20234;-69
2024/03/07 09:56:32;;;;;;;1999.90;999.90;;;;;;;;;;5075855;28;20208;-68
2024/03/07 09:59:20;;;;;;;1999.90;999.90;;;;;;;;;;5075702;28;20210;-69
2024/03/07 10:02:07;;;;;;;1999.90;999.90;;;;;;;;;;5075127;28;20241;-69
2024/03/07 10:04:52;;;;;;;1999.90;999.90;;;;;;;;;;5075774;28;20324;-69
2024/03/07 10:07:39;;;;;;;1999.90;999.90;;;;;;;;;;5075704;28;20698;-68
2024/03/07 10:10:24;;;;;;;1999.90;999.90;;;;;;;;;;5075461;28;20700;-69
2024/03/07 10:13:09;;;;;;;1999.90;999.90;;;;;;;;;;5075434;28;20226;-69
2024/03/07 10:15:59;;;;;;;1999.90;999.90;;;;;;;;;;5055692;28;20211;-69
2024/03/07 10:18:45;;;;;;;1999.90;999.90;;;;;;;;;;5055634;28;20575;-69
2024/03/07 10:21:31;;;;;;;1999.90;999.90;;;;;;;;;;5055482;28;20392;-69
2024/03/07 10:24:17;;;;;;;1999.90;999.90;;;;;;;;;;5066926;28;20218;-69
2024/03/07 10:27:04;;;;;;;1999.90;999.90;;;;;;;;;;5075432;28;20294;-69
2024/03/07 10:29:50;;;;;;;1999.90;999.90;;;;;;;;;;5075534;28;20700;-70
2024/03/07 10:32:35;;;;;;;1999.90;999.90;;;;;;;;;;5074819;28;20274;-69
2024/03/07 10:35:22;;;;;;;1999.90;999.90;;;;;;;;;;5075097;28;20265;-69
2024/03/07 10:38:07;;;;;;;1999.90;999.90;;;;;;;;;;5087467;28;20214;-70
2024/03/07 10:40:55;;;;;;;1999.90;999.90;;;;;;;;;;5073273;28;20399;-69
2024/03/07 10:43:42;;;;;;;1999.90;999.90;;;;;;;;;;5074442;28;20763;-69
2024/03/07 10:46:27;;;;;;;1999.90;999.90;;;;;;;;;;5074925;28;20207;-69
2024/03/07 10:49:14;;;;;;;1999.90;999.90;;;;;;;;;;5074692;28;20202;-68
2024/03/07 10:52:03;;;;;;;1999.90;999.90;;;;;;;;;;5074318;28;20358;-68
2024/03/07 10:54:51;;;;;;;1999.90;999.90;;;;;;;;;;5074437;28;20261;-69
2024/03/07 10:57:42;;;;;;;1999.90;999.90;;;;;;;;;;5073915;28;20208;-68
2024/03/07 11:00:35;;;;;;;1999.90;999.90;;;;;;;;;;5074522;28;20200;-68
2024/03/07 11:03:21;;;;;;;1999.90;999.90;;;;;;;;;;5074223;28;20207;-68
2024/03/07 11:06:11;;;;;;;1999.90;999.90;;;;;;;;;;5074464;28;20230;-69
2024/03/07 11:08:56;;;;;;;1999.90;999.90;;;;;;;;;;5074342;28;20575;-70
2024/03/07 11:11:43;;;;;;;1999.90;999.90;;;;;;;;;;5074042;28;20702;-70
2024/03/07 11:14:29;;;;;;;1999.90;999.90;;;;;;;;;;5074697;28;20602;-70
2024/03/07 11:17:15;;;;;;;1999.90;999.90;;;;;;;;;;5074284;28;20294;-70
2024/03/07 11:20:15;;;;;;;1999.90;999.90;;;;;;;;;;5074397;28;20731;-69
2024/03/07 11:23:02;;;;;;;1999.90;999.90;;;;;;;;;;5074716;28;20282;-69
2024/03/07 11:25:48;;;;;;;1999.90;999.90;;;;;;;;;;5074617;28;20212;-71
2024/03/07 11:28:37;;;;;;;1999.90;999.90;;;;;;;;;;5074229;28;20211;-70
2024/03/07 11:31:28;;;;;;;1999.90;999.90;;;;;;;;;;5075571;28;20228;-70
2024/03/07 11:34:14;;;;;;;1999.90;999.90;;;;;;;;;;5075582;28;20242;-70
2024/03/07 11:36:59;;;;;;;1999.90;999.90;;;;;;;;;;5074616;28;20334;-71
2024/03/07 11:39:46;;;;;;;1999.90;999.90;;;;;;;;;;5075167;28;20204;-70
2024/03/07 11:42:33;;;;;;;1999.90;999.90;;;;;;;;;;5054756;28;20231;-69
2024/03/07 11:45:26;;;;;;;1999.90;999.90;;;;;;;;;;5059558;28;20205;-70
2024/03/07 11:48:12;;;;;;;1999.90;999.90;;;;;;;;;;5072952;28;20970;-69
2024/03/07 11:50:57;;;;;;;1999.90;999.90;;;;;;;;;;5073009;28;20350;-70
2024/03/07 11:53:42;;;;;;;1999.90;999.90;;;;;;;;;;5062552;28;20579;-70
2024/03/07 11:56:28;;;;;;;1999.90;999.90;;;;;;;;;;5053963;28;20201;-70
2024/03/07 11:59:12;;;;;;;1999.90;999.90;;;;;;;;;;5054069;28;20220;-70
2024/03/07 12:02:01;;;;;;;1999.90;999.90;;;;;;;;;;5053419;28;20227;-70
2024/03/07 12:04:48;;;;;;;1999.90;999.90;;;;;;;;;;5054084;28;20201;-70
2024/03/07 12:07:33;;;;;;;1999.90;999.90;;;;;;;;;;5067092;28;20227;-70
2024/03/07 12:10:24;;;;;;;1999.90;999.90;;;;;;;;;;5072462;28;20389;-70
2024/03/07 12:13:11;;;;;;;1999.90;999.90;;;;;;;;;;5073092;28;20677;-70
2024/03/07 12:15:58;;;;;;;1999.90;999.90;;;;;;;;;;5073320;28;20695;-69
2024/03/07 12:18:44;;;;;;;1999.90;999.90;;;;;;;;;;5053619;28;20204;-70
2024/03/07 12:21:31;;;;;;;1999.90;999.90;;;;;;;;;;5053485;28;20233;-70
2024/03/07 12:24:16;;;;;;;1999.90;999.90;;;;;;;;;;5057301;28;20251;-69
2024/03/07 12:27:09;;;;;;;1999.90;999.90;;;;;;;;;;5087999;28;20261;-70
2024/03/07 12:29:54;;;;;;;1999.90;999.90;;;;;;;;;;5089077;28;20681;-70
2024/03/07 12:32:43;;;;;;;1999.90;999.90;;;;;;;;;;5073041;28;20301;-70
2024/03/07 12:35:28;;;;;;;1999.90;999.90;;;;;;;;;;5073189;28;20732;-70
2024/03/07 12:38:16;;;;;;;1999.90;999.90;;;;;;;;;;5073500;28;20207;-70
2024/03/07 12:41:07;;;;;;;1999.90;999.90;;;;;;;;;;5073943;28;20230;-70
2024/03/07 12:43:52;;;;;;;1999.90;999.90;;;;;;;;;;5069714;28;20695;-69
2024/03/07 12:46:38;;;;;;;1999.90;999.90;;;;;;;;;;5070056;28;20219;-69
2024/03/07 12:49:26;;;;;;;1999.90;999.90;;;;;;;;;;5068991;28;20262;-69
2024/03/07 12:52:13;;;;;;;1999.90;999.90;;;;;;;;;;5068769;28;20228;-68
2024/03/07 12:54:59;;;;;;;1999.90;999.90;;;;;;;;;;5069796;28;20228;-69
2024/03/07 12:57:44;;;;;;;1999.90;999.90;;;;;;;;;;5070106;28;20204;-69
2024/03/07 13:00:30;;;;;;;1999.90;999.90;;;;;;;;;;5070198;28;20216;-68
2024/03/07 13:03:15;;;;;;;1999.90;999.90;;;;;;;;;;5069236;28;20449;-68
2024/03/07 13:06:01;;;;;;;1999.90;999.90;;;;;;;;;;5069819;28;20208;-69
2024/03/07 13:08:46;;;;;;;1999.90;999.90;;;;;;;;;;5068882;28;20294;-69
2024/03/07 13:11:33;;;;;;;1999.90;999.90;;;;;;;;;;5069825;28;20232;-69
2024/03/07 13:14:18;;;;;;;1999.90;999.90;;;;;;;;;;5069768;28;20607;-68
2024/03/07 13:17:04;;;;;;;1999.90;999.90;;;;;;;;;;5069767;28;20200;-68
2024/03/07 13:19:59;;;;;;;1999.90;999.90;;;;;;;;;;5068330;28;20262;-68
2024/03/07 13:22:46;;;;;;;1999.90;999.90;;;;;;;;;;5067847;28;20318;-68
2024/03/07 13:25:33;;;;;;;1999.90;999.90;;;;;;;;;;5068774;28;20254;-68
2024/03/07 13:28:24;;;;;;;1999.90;999.90;;;;;;;;;;5069899;28;20207;-69
2024/03/07 13:31:11;;;;;;;1999.90;999.90;;;;;;;;;;5068115;28;20271;-69
2024/03/07 13:33:56;;;;;;;1999.90;999.90;;;;;;;;;;5067241;28;20442;-69
2024/03/07 13:36:42;;;;;;;1999.90;999.90;;;;;;;;;;5070712;28;20250;-70
2024/03/07 13:39:27;;;;;;;1999.90;999.90;;;;;;;;;;5073258;28;20267;-71
2024/03/07 13:42:13;;;;;;;1999.90;999.90;;;;;;;;;;5072116;28;20286;-70
2024/03/07 13:45:00;;;;;;;1999.90;999.90;;;;;;;;;;5071365;28;20193;-70
2024/03/07 13:47:48;;;;;;;1999.90;999.90;;;;;;;;;;5071933;28;20216;-70
2024/03/07 13:50:34;;;;;;;1999.90;999.90;;;;;;;;;;5068577;28;20411;-70
2024/03/07 13:53:29;;;;;;;1999.90;999.90;;;;;;;;;;5067373;28;20278;-69
2024/03/07 13:56:35;;;;;;;1999.90;999.90;;;;;;;;;;5069666;28;20696;-70
2024/03/07 13:59:41;;;;;;;1999.90;999.90;;;;;;;;;;5068907;28;20216;-68
2024/03/07 14:02:38;;;;;;;1999.90;999.90;;;;;;;;;;5069485;28;20220;-71
2024/03/07 14:05:45;;;;;;;1999.90;999.90;;;;;;;;;;5068161;28;20327;-70
2024/03/07 14:08:54;;;;;;;1999.90;999.90;;;;;;;;;;5069612;28;20335;-70
2024/03/07 14:11:51;;;;;;;1999.90;999.90;;;;;;;;;;5069207;28;20666;-70
2024/03/07 14:14:45;;;;;;;1999.90;999.90;;;;;;;;;;5071836;28;20266;-69
2024/03/07 14:17:53;;;;;;;1999.90;999.90;;;;;;;;;;5053144;28;20593;-69
2024/03/07 14:21:09;;;;;;;1999.90;999.90;;;;;;;;;;5052810;28;20255;-69
2024/03/07 14:24:08;;;;;;;1999.90;999.90;;;;;;;;;;5053255;28;20219;-69
2024/03/07 14:27:09;;;;;;;1999.90;999.90;;;;;;;;;;5052707;28;20264;-69
2024/03/07 14:30:03;;;;;;;1999.90;999.90;;;;;;;;;;5052977;28;20260;-69
2024/03/07 14:32:50;;;;;;;1999.90;999.90;;;;;;;;;;5055568;28;20206;-68
2024/03/07 14:35:40;;;;;;;1999.90;999.90;;;;;;;;;;5056565;28;20312;-70
2024/03/07 14:38:27;;;;;;;1999.90;999.90;;;;;;;;;;5056743;28;20204;-68
2024/03/07 14:41:14;;;;;;;1999.90;999.90;;;;;;;;;;5064146;28;20500;-70
2024/03/07 14:44:00;;;;;;;1999.90;999.90;;;;;;;;;;5074747;28;20208;-71
2024/03/07 14:46:45;;;;;;;1999.90;999.90;;;;;;;;;;5075044;28;20205;-70
2024/03/07 14:49:32;;;;;;;1999.90;999.90;;;;;;;;;;5075330;28;20277;-70
2024/03/07 14:52:18;;;;;;;1999.90;999.90;;;;;;;;;;5054188;28;20224;-70
2024/03/07 14:55:03;;;;;;;1999.90;999.90;;;;;;;;;;5055089;28;20236;-70
2024/03/07 14:57:49;;;;;;;1999.90;999.90;;;;;;;;;;5055039;28;20283;-71
2024/03/07 15:00:34;;;;;;;1999.90;999.90;;;;;;;;;;5073785;28;20697;-70
2024/03/07 15:03:19;;;;;;;1999.90;999.90;;;;;;;;;;5074812;28;20212;-70
2024/03/07 15:06:08;;;;;;;1999.90;999.90;;;;;;;;;;5074696;28;20204;-69
2024/03/07 15:08:53;;;;;;;1999.90;999.90;;;;;;;;;;5074718;28;20570;-69
2024/03/07 15:11:40;;;;;;;1999.90;999.90;;;;;;;;;;5074172;28;20297;-69
2024/03/07 15:14:25;;;;;;;1999.90;999.90;;;;;;;;;;5074602;28;20691;-70
2024/03/07 15:17:10;;;;;;;1999.90;999.90;;;;;;;;;;5074693;28;20704;-70
2024/03/07 15:19:55;;;;;;;1999.90;999.90;;;;;;;;;;5074306;28;20204;-70
2024/03/07 15:22:46;;;;;;;1999.90;999.90;;;;;;;;;;5073711;28;20227;-70
2024/03/07 15:25:30;;;;;;;1999.90;999.90;;;;;;;;;;5074249;28;20702;-70
2024/03/07 15:28:15;;;;;;;1999.90;999.90;;;;;;;;;;5074003;28;20388;-70
2024/03/07 15:31:05;;;;;;;1999.90;999.90;;;;;;;;;;5074678;28;20219;-69
2024/03/07 15:33:51;;;;;;;1999.90;999.90;;;;;;;;;;5074075;28;20791;-70
2024/03/07 15:36:36;;;;;;;1999.90;999.90;;;;;;;;;;5058956;28;20225;-70
2024/03/07 15:39:26;;;;;;;1999.90;999.90;;;;;;;;;;5053792;28;20561;-70
2024/03/07 15:42:11;;;;;;;1999.90;999.90;;;;;;;;;;5053198;28;20224;-70
2024/03/07 15:44:59;;;;;;;1999.90;999.90;;;;;;;;;;5070823;28;20255;-70
2024/03/07 15:47:44;;;;;;;1999.90;999.90;;;;;;;;;;5073550;28;20692;-70
2024/03/07 15:50:29;;;;;;;1999.90;999.90;;;;;;;;;;5073530;28;20205;-69
2024/03/07 15:53:15;;;;;;;1999.90;999.90;;;;;;;;;;5073455;28;20259;-69
2024/03/07 15:56:01;;;;;;;1999.90;999.90;;;;;;;;;;5073333;28;20258;-69
2024/03/07 15:58:46;;;;;;;1999.90;999.90;;;;;;;;;;5073684;28;20240;-69
2024/03/07 16:01:32;;;;;;;1999.90;999.90;;;;;;;;;;5066056;28;20217;-71
2024/03/07 16:04:17;;;;;;;1999.90;999.90;;;;;;;;;;5088552;28;20215;-70
2024/03/07 16:07:03;;;;;;;1999.90;999.90;;;;;;;;;;5086204;28;20698;-69
2024/03/07 16:09:48;;;;;;;1999.90;999.90;;;;;;;;;;5062546;28;20209;-69
2024/03/07 16:12:35;;;;;;;1999.90;999.90;;;;;;;;;;5068120;28;20224;-69
2024/03/07 16:15:22;;;;;;;1999.90;999.90;;;;;;;;;;5075997;28;20251;-69
2024/03/07 16:18:08;;;;;;;1999.90;999.90;;;;;;;;;;5076156;28;20475;-69
2024/03/07 16:20:56;;;;;;;1999.90;999.90;;;;;;;;;;5092798;28;20232;-69
2024/03/07 16:23:41;;;;;;;1999.90;999.90;;;;;;;;;;5062670;28;20208;-69
2024/03/07 16:26:33;;;;;;;1999.90;999.90;;;;;;;;;;5053604;28;20474;-69
2024/03/07 16:29:19;;;;;;;1999.90;999.90;;;;;;;;;;5070239;28;20203;-69
2024/03/07 16:32:05;;;;;;;1999.90;999.90;;;;;;;;;;5063344;28;20347;-69
2024/03/07 16:34:50;;;;;;;1999.90;999.90;;;;;;;;;;5087265;28;20241;-69
2024/03/07 16:37:38;;;;;;;1999.90;999.90;;;;;;;;;;5070623;28;20339;-69
2024/03/07 16:40:25;;;;;;;1999.90;999.90;;;;;;;;;;5072519;28;20203;-69
2024/03/07 16:43:10;;;;;;;1999.90;999.90;;;;;;;;;;5071666;28;20815;-69
2024/03/07 16:45:57;;;;;;;1999.90;999.90;;;;;;;;;;5072475;28;20211;-69
2024/03/07 16:48:42;;;;;;;1999.90;999.90;;;;;;;;;;5071594;28;20200;-69
2024/03/07 16:51:28;;;;;;;1999.90;999.90;;;;;;;;;;5060725;28;20365;-69
2024/03/07 16:54:13;;;;;;;1999.90;999.90;;;;;;;;;;5051802;28;20283;-68
2024/03/07 16:56:58;;;;;;;1999.90;999.90;;;;;;;;;;5056489;28;20282;-68
2024/03/07 16:59:43;;;;;;;1999.90;999.90;;;;;;;;;;5072285;28;20216;-69
2024/03/07 17:02:29;;;;;;;1999.90;999.90;;;;;;;;;;5056537;28;20229;-69
2024/03/07 17:05:15;;;;;;;1999.90;999.90;;;;;;;;;;5052502;28;20408;-70
2024/03/07 17:08:01;;;;;;;1999.90;999.90;;;;;;;;;;5052014;28;20209;-69
2024/03/07 17:10:46;;;;;;;1999.90;999.90;;;;;;;;;;5055203;28;20223;-69
2024/03/07 17:13:31;;;;;;;1999.90;999.90;;;;;;;;;;5072019;28;20208;-69
2024/03/07 17:16:16;;;;;;;1999.90;999.90;;;;;;;;;;5070206;28;20788;-69
2024/03/07 17:19:09;;;;;;;1999.90;999.90;;;;;;;;;;5072085;28;20207;-69
2024/03/07 17:21:54;;;;;;;1999.90;999.90;;;;;;;;;;5069831;28;20750;-69
2024/03/07 17:24:40;;;;;;;1999.90;999.90;;;;;;;;;;5072077;28;20210;-69
2024/03/07 17:27:25;;;;;;;1999.90;999.90;;;;;;;;;;5070029;28;20207;-70
2024/03/07 17:30:11;;;;;;;1999.90;999.90;;;;;;;;;;5071794;28;20222;-70
2024/03/07 17:32:58;;;;;;;1999.90;999.90;;;;;;;;;;5071791;28;20208;-69
2024/03/07 17:35:45;;;;;;;1999.90;999.90;;;;;;;;;;5068284;28;20282;-69
2024/03/07 17:38:32;;;;;;;1999.90;999.90;;;;;;;;;;5060883;28;20209;-69
2024/03/07 17:41:18;;;;;;;1999.90;999.90;;;;;;;;;;5076500;28;20407;-69
2024/03/07 17:44:02;;;;;;;1999.90;999.90;;;;;;;;;;5054328;28;20234;-69
2024/03/07 17:46:48;;;;;;;1999.90;999.90;;;;;;;;;;5071665;28;20600;-69
2024/03/07 17:49:33;;;;;;;1999.90;999.90;;;;;;;;;;5071628;28;20213;-69
2024/03/07 17:52:21;;;;;;;1999.90;999.90;;;;;;;;;;5071472;28;20230;-69